JM-0010 weather

Nain Airstrip
Saint Elizabeth, Jamaica

Public forecast

Using degrees Celsius for public forecast. Weather courtesy of forecast.io.

METAR (pilot weather report)

Closest report is Sangster International Airport, 36.1 nm (66.9 km) NNW. Retrieved 2019/04/18 10:00 UTC (27 minutes ago):

MKJS 181000Z 14005KT 9999 FEW022 25/22 Q1012

TAF (pilot weather forecast)

Closest forecast is Sangster International Airport, 36.1 nm (66.9 km) NNW. Retrieved 2019/04/18 06:23 UTC (4 hours ago):

TAF MKJS 180515Z 1806/1906 VRB03KT 9999 FEW022 BECMG 1814/1816 07015KT TEMPO 1818/1821 7000 SHRA BKN018 BECMG 1901/1903 VRB03KT